Time;durP1;ratioP1;P1;durP2;ratioP2;P2;SDS_P1;SDS_P2;PMS_P1;PMS_P2;Temp;Humidity;BMP_temperature;BMP_pressure;BME280_temperature;BME280_humidity;BME280_pressure;Samples;Min_cycle;Max_cycle;Signal;HPM_P1;HPM_P2
2023/07/31 00:00:05;;;;;;;3.23;2.20;;;;;;;18.17;100.00;99905.66;5023644;28;20186;-71
2023/07/31 00:02:30;;;;;;;6.10;2.43;;;;;;;18.17;100.00;99901.31;5055147;28;20177;-73
2023/07/31 00:04:55;;;;;;;7.57;2.10;;;;;;;18.20;100.00;99897.59;5051811;28;20213;-73
2023/07/31 00:07:21;;;;;;;5.03;2.23;;;;;;;18.26;100.00;99898.81;5061214;28;20325;-74
2023/07/31 00:09:46;;;;;;;4.87;2.00;;;;;;;18.31;100.00;99899.25;5047441;28;20637;-75
2023/07/31 00:12:11;;;;;;;3.67;2.07;;;;;;;18.24;100.00;99901.56;5032190;28;20307;-73
2023/07/31 00:14:37;;;;;;;4.60;2.13;;;;;;;18.38;100.00;99890.72;5045614;28;20303;-75
2023/07/31 00:17:02;;;;;;;5.90;1.73;;;;;;;18.38;100.00;99889.91;5053878;28;20193;-73
2023/07/31 00:19:27;;;;;;;4.90;2.00;;;;;;;18.35;100.00;99888.38;5053718;28;20181;-73
2023/07/31 00:21:52;;;;;;;4.57;2.07;;;;;;;18.37;100.00;99883.06;5028355;28;20232;-73
2023/07/31 00:24:18;;;;;;;5.57;2.40;;;;;;;18.32;100.00;99890.44;5048112;28;20204;-73
2023/07/31 00:26:43;;;;;;;5.63;2.33;;;;;;;18.31;100.00;99892.25;5052415;28;20251;-72
2023/07/31 00:29:08;;;;;;;5.73;2.60;;;;;;;18.35;100.00;99884.97;5052139;28;20181;-73
2023/07/31 00:31:34;;;;;;;3.80;2.00;;;;;;;18.20;100.00;99887.19;5042884;28;20225;-74
2023/07/31 00:33:59;;;;;;;8.20;2.47;;;;;;;18.22;100.00;99883.50;5045725;28;20193;-73
2023/07/31 00:36:24;;;;;;;6.53;2.47;;;;;;;18.23;100.00;99882.53;5045556;28;20188;-74
2023/07/31 00:38:49;;;;;;;7.27;2.53;;;;;;;18.21;100.00;99878.44;5052339;28;20198;-73
2023/07/31 00:41:15;;;;;;;4.27;1.93;;;;;;;18.18;100.00;99886.50;5048715;28;20332;-74
2023/07/31 00:43:40;;;;;;;5.53;2.30;;;;;;;18.12;100.00;99881.84;5039744;28;20574;-73
2023/07/31 00:46:06;;;;;;;5.63;2.10;;;;;;;18.17;100.00;99884.84;5051251;28;20256;-73
2023/07/31 00:48:32;;;;;;;8.13;2.10;;;;;;;18.14;100.00;99883.34;5051692;28;20174;-73
2023/07/31 00:50:57;;;;;;;4.40;2.10;;;;;;;18.18;100.00;99886.50;5044687;28;20273;-73
2023/07/31 00:53:24;;;;;;;3.93;2.07;;;;;;;18.17;100.00;99887.44;5045361;28;20178;-73
2023/07/31 00:55:50;;;;;;;4.17;2.30;;;;;;;18.11;100.00;99885.41;5050379;28;20197;-72
2023/07/31 00:58:15;;;;;;;4.80;2.30;;;;;;;18.06;100.00;99875.44;5051851;28;20177;-73
2023/07/31 01:00:40;;;;;;;6.67;2.17;;;;;;;17.99;100.00;99875.13;5047161;28;20232;-73
2023/07/31 01:03:06;;;;;;;6.70;2.60;;;;;;;17.96;100.00;99872.81;5039673;28;20178;-73
2023/07/31 01:05:52;;;;;;;7.30;2.40;;;;;;;17.82;100.00;99857.56;5036336;28;20629;-72
2023/07/31 01:08:29;;;;;;;6.23;2.33;;;;;;;17.83;100.00;99860.03;5051679;28;20181;-73
2023/07/31 01:11:00;;;;;;;4.17;2.07;;;;;;;17.81;100.00;99855.94;5046890;28;20362;-73
2023/07/31 01:13:26;;;;;;;4.60;2.33;;;;;;;17.85;100.00;99881.53;5043818;28;20665;-73
2023/07/31 01:15:51;;;;;;;5.23;2.33;;;;;;;17.94;100.00;99872.13;5048007;28;20248;-73
2023/07/31 01:18:17;;;;;;;8.83;2.70;;;;;;;17.89;100.00;99869.09;5049170;28;20633;-70
2023/07/31 01:20:43;;;;;;;5.43;2.37;;;;;;;17.85;100.00;99880.72;5044315;28;20329;-72
2023/07/31 01:23:39;;;;;;;5.00;2.57;;;;;;;17.91;100.00;99870.59;5048138;28;20194;-72
2023/07/31 01:26:20;;;;;;;7.43;2.40;;;;;;;17.89;100.00;99871.69;5050281;28;20950;-71
2023/07/31 01:29:06;;;;;;;6.27;2.40;;;;;;;17.89;100.00;99890.72;5054110;28;20181;-72
2023/07/31 01:31:32;;;;;;;3.83;2.33;;;;;;;17.87;100.00;99886.59;5034200;28;20228;-72
2023/07/31 01:34:01;;;;;;;5.63;2.50;;;;;;;17.88;100.00;99870.84;5038841;28;20190;-73
2023/07/31 01:36:27;;;;;;;4.40;2.10;;;;;;;17.95;100.00;99857.31;5042643;28;20177;-72
2023/07/31 01:38:58;;;;;;;5.13;2.30;;;;;;;17.91;100.00;99857.59;5052418;28;20239;-72
2023/07/31 01:41:24;;;;;;;7.60;2.30;;;;;;;18.00;100.00;99852.56;5052720;28;20228;-72
2023/07/31 01:43:49;;;;;;;8.30;2.47;;;;;;;17.93;100.00;99854.03;5048577;28;20193;-72
2023/07/31 01:46:14;;;;;;;6.30;2.50;;;;;;;18.01;100.00;99842.00;5042551;28;20213;-72
2023/07/31 01:48:40;;;;;;;4.23;2.73;;;;;;;17.99;100.00;99849.09;5052041;28;20193;-72
2023/07/31 01:51:05;;;;;;;4.10;2.50;;;;;;;17.91;100.00;99841.97;5049915;28;20239;-72
2023/07/31 01:53:31;;;;;;;7.27;2.83;;;;;;;17.81;100.00;99832.50;5037977;28;20197;-72
2023/07/31 01:55:57;;;;;;;5.17;1.93;;;;;;;17.85;100.00;99839.06;5037586;28;20177;-71
2023/07/31 01:58:22;;;;;;;4.27;2.80;;;;;;;17.89;100.00;99835.25;5052325;28;20239;-72
2023/07/31 02:00:47;;;;;;;4.37;2.50;;;;;;;17.82;100.00;99834.16;5043329;28;20345;-72
2023/07/31 02:03:12;;;;;;;9.63;2.83;;;;;;;17.75;100.00;99831.31;5044907;28;20189;-71
2023/07/31 02:05:45;;;;;;;7.67;2.00;;;;;;;17.72;100.00;99822.00;5041259;28;20640;-73
2023/07/31 02:08:10;;;;;;;7.43;2.87;;;;;;;17.74;100.00;99822.66;5052117;28;20185;-73
2023/07/31 02:10:36;;;;;;;5.67;2.77;;;;;;;17.72;100.00;99815.94;5045801;28;20232;-73
2023/07/31 02:13:03;;;;;;;4.50;2.57;;;;;;;17.57;100.00;99818.94;5054619;28;20188;-72
2023/07/31 02:15:29;;;;;;;4.73;2.80;;;;;;;17.52;100.00;99825.53;5045324;28;20310;-72
2023/07/31 02:17:55;;;;;;;5.70;2.53;;;;;;;17.62;100.00;99810.75;5050142;28;20174;-72
2023/07/31 02:20:20;;;;;;;6.43;3.10;;;;;;;17.60;100.00;99812.69;5043641;28;20668;-73
2023/07/31 02:22:45;;;;;;;5.83;2.70;;;;;;;17.54;100.00;99813.22;5062088;28;20637;-73
2023/07/31 02:25:10;;;;;;;5.33;2.97;;;;;;;17.49;100.00;99804.97;5049685;28;20220;-73
2023/07/31 02:27:36;;;;;;;5.47;2.90;;;;;;;17.56;100.00;99808.69;5036931;28;20241;-72
2023/07/31 02:30:01;;;;;;;8.07;2.80;;;;;;;17.63;100.00;99814.19;5043537;28;20178;-72
2023/07/31 02:32:26;;;;;;;7.03;2.87;;;;;;;17.70;100.00;99815.25;5020266;28;20560;-72
2023/07/31 02:34:51;;;;;;;6.80;3.07;;;;;;;17.66;100.00;99816.50;5037456;28;20375;-71
2023/07/31 02:37:17;;;;;;;5.53;3.03;;;;;;;17.73;100.00;99810.59;5049526;28;20181;-71
2023/07/31 02:39:42;;;;;;;6.40;2.63;;;;;;;17.75;100.00;99819.09;5051206;28;20173;-71
2023/07/31 02:42:08;;;;;;;6.13;3.07;;;;;;;17.81;100.00;99830.75;5046097;28;20217;-72
2023/07/31 02:44:33;;;;;;;6.17;3.00;;;;;;;17.81;100.00;99829.91;5048057;28;20185;-72
2023/07/31 02:46:58;;;;;;;7.17;2.57;;;;;;;17.74;100.00;99834.84;5049642;28;20197;-72
2023/07/31 02:49:23;;;;;;;6.60;3.13;;;;;;;17.81;100.00;99837.72;5049793;28;20173;-73
2023/07/31 02:51:49;;;;;;;9.93;3.43;;;;;;;17.85;100.00;99836.47;5042470;28;20271;-72
2023/07/31 02:54:14;;;;;;;7.23;3.03;;;;;;;17.82;100.00;99832.38;5035995;28;20351;-72
2023/07/31 02:56:39;;;;;;;9.70;3.07;;;;;;;17.87;100.00;99852.78;5050153;28;20181;-71
2023/07/31 02:59:04;;;;;;;4.60;2.60;;;;;;;17.89;100.00;99840.47;5050917;28;20600;-72
2023/07/31 03:01:30;;;;;;;5.57;2.40;;;;;;;17.92;100.00;99847.97;5041833;28;20221;-72
2023/07/31 03:03:56;;;;;;;4.87;2.33;;;;;;;17.84;100.00;99838.28;5040920;28;20185;-72
2023/07/31 03:06:21;;;;;;;9.03;3.13;;;;;;;17.83;100.00;99834.03;5038680;28;20219;-72
2023/07/31 03:08:46;;;;;;;6.83;3.33;;;;;;;17.88;100.00;99841.41;5049185;28;20641;-73
2023/07/31 03:11:12;;;;;;;5.90;2.43;;;;;;;17.85;100.00;99833.88;5049897;28;20228;-72
2023/07/31 03:13:37;;;;;;;4.70;2.57;;;;;;;17.87;100.00;99832.81;5046099;28;20193;-73
2023/07/31 03:16:02;;;;;;;8.23;2.87;;;;;;;17.88;100.00;99825.81;5045603;28;20544;-72
2023/07/31 03:18:27;;;;;;;6.03;2.83;;;;;;;17.94;100.00;99822.69;5045299;28;20178;-72
2023/07/31 03:20:53;;;;;;;6.93;2.97;;;;;;;17.97;100.00;99821.59;5047288;28;20659;-71
2023/07/31 03:23:18;;;;;;;4.37;2.20;;;;;;;17.90;100.00;99821.31;5059742;28;20181;-71
2023/07/31 03:26:06;;;;;;;4.73;2.60;;;;;;;17.91;100.00;99812.50;5043103;28;20212;-71
2023/07/31 03:28:31;;;;;;;5.67;3.23;;;;;;;17.93;100.00;99826.22;5037987;28;20287;-71
2023/07/31 03:30:56;;;;;;;4.97;2.87;;;;;;;17.94;100.00;99816.66;5019478;28;20295;-72
2023/07/31 03:33:21;;;;;;;8.33;2.83;;;;;;;17.99;100.00;99817.88;5038752;28;20190;-72
2023/07/31 03:35:47;;;;;;;6.70;2.63;;;;;;;17.94;100.00;99827.88;5041445;28;20183;-72
2023/07/31 03:38:12;;;;;;;10.07;3.23;;;;;;;17.97;100.00;99832.00;5032472;28;20186;-73
2023/07/31 03:40:37;;;;;;;9.30;3.07;;;;;;;17.94;100.00;99827.88;5038185;28;20618;-72
2023/07/31 03:43:03;;;;;;;6.80;3.20;;;;;;;17.86;100.00;99830.31;5049102;28;20181;-72
2023/07/31 03:45:28;;;;;;;9.17;3.50;;;;;;;17.64;100.00;99821.84;5047132;28;20201;-73
2023/07/31 03:47:54;;;;;;;4.90;2.70;;;;;;;17.70;100.00;99823.91;5033132;28;20220;-70
2023/07/31 03:50:20;;;;;;;4.83;3.00;;;;;;;17.61;100.00;99832.50;5044034;28;20169;-71
2023/07/31 03:52:45;;;;;;;6.70;3.10;;;;;;;17.55;100.00;99830.44;5033885;28;20182;-72
2023/07/31 03:55:10;;;;;;;6.90;2.90;;;;;;;17.61;100.00;99823.91;5046643;28;20191;-71
2023/07/31 03:57:36;;;;;;;8.10;3.40;;;;;;;17.50;100.00;99825.66;5047655;28;20189;-72
2023/07/31 04:00:01;;;;;;;9.33;3.30;;;;;;;17.51;100.00;99832.50;5053920;28;20197;-72
2023/07/31 04:02:26;;;;;;;7.40;3.60;;;;;;;17.52;100.00;99834.13;5056692;28;20225;-72
2023/07/31 04:04:51;;;;;;;7.10;2.73;;;;;;;17.52;100.00;99817.72;5052556;28;20181;-72
2023/07/31 04:07:17;;;;;;;8.70;3.33;;;;;;;17.58;100.00;99828.41;5048137;28;20209;-72
2023/07/31 04:09:42;;;;;;;9.20;2.80;;;;;;;17.53;100.00;99811.56;5045217;28;20193;-71
2023/07/31 04:12:07;;;;;;;9.63;3.43;;;;;;;17.47;100.00;99799.94;5044639;28;20216;-72
2023/07/31 04:14:33;;;;;;;6.90;3.10;;;;;;;17.46;100.00;99794.88;5053309;28;20524;-72
2023/07/31 04:16:58;;;;;;;6.17;3.20;;;;;;;17.48;100.00;99800.75;5051455;28;20745;-72
2023/07/31 04:19:24;;;;;;;9.20;2.87;;;;;;;17.53;100.00;99806.38;5035202;28;20190;-72
2023/07/31 04:21:49;;;;;;;5.10;2.90;;;;;;;17.57;100.00;99798.16;5055083;28;20632;-72
2023/07/31 04:24:14;;;;;;;7.57;2.80;;;;;;;17.60;100.00;99802.28;5055008;28;20197;-72
2023/07/31 04:26:40;;;;;;;5.50;3.00;;;;;;;17.68;100.00;99799.78;5053131;28;20605;-72
2023/07/31 04:29:05;;;;;;;6.53;2.90;;;;;;;17.68;100.00;99796.38;5041741;28;20190;-72
2023/07/31 04:31:30;;;;;;;7.40;3.90;;;;;;;17.60;100.00;99791.88;5042828;28;20225;-72
2023/07/31 04:33:56;;;;;;;8.40;2.70;;;;;;;17.46;100.00;99781.88;5052271;28;20189;-72
2023/07/31 04:36:21;;;;;;;5.37;2.57;;;;;;;17.59;100.00;99782.44;5051752;28;20553;-72
2023/07/31 04:38:46;;;;;;;6.67;2.70;;;;;;;17.53;100.00;99786.38;5050037;28;20182;-72
2023/07/31 04:41:11;;;;;;;8.00;3.30;;;;;;;17.58;100.00;99781.59;5041602;28;20232;-72
2023/07/31 04:43:38;;;;;;;4.97;2.83;;;;;;;17.64;100.00;99782.00;5058225;28;20216;-72
2023/07/31 04:46:04;;;;;;;7.60;3.13;;;;;;;17.71;100.00;99783.94;5051095;28;20615;-72
2023/07/31 04:48:29;;;;;;;8.70;3.40;;;;;;;17.70;100.00;99790.09;5053362;28;20205;-73
2023/07/31 04:50:55;;;;;;;8.87;3.93;;;;;;;17.73;100.00;99791.59;5033181;28;20253;-72
2023/07/31 04:53:20;;;;;;;5.93;2.80;;;;;;;17.69;100.00;99796.25;5032141;28;20181;-72
2023/07/31 04:55:45;;;;;;;6.83;3.20;;;;;;;17.66;100.00;99796.53;5048561;28;20181;-72
2023/07/31 04:58:10;;;;;;;8.00;3.20;;;;;;;17.73;100.00;99794.19;5053248;28;20554;-72
2023/07/31 05:00:36;;;;;;;5.57;3.13;;;;;;;17.63;100.00;99783.78;5038607;28;20227;-72
2023/07/31 05:03:01;;;;;;;8.07;3.27;;;;;;;17.64;100.00;99785.44;5051217;28;20197;-72
2023/07/31 05:05:26;;;;;;;7.90;3.27;;;;;;;17.67;100.00;99792.94;5038140;28;20175;-72
2023/07/31 05:07:51;;;;;;;6.33;3.07;;;;;;;17.71;100.00;99788.28;5051222;28;20273;-72
2023/07/31 05:10:17;;;;;;;8.80;3.17;;;;;;;17.79;100.00;99793.63;5041147;28;20185;-57
2023/07/31 05:12:42;;;;;;;8.90;3.23;;;;;;;17.88;100.00;99790.19;5039262;28;20189;-58
2023/07/31 05:15:08;;;;;;;6.37;3.40;;;;;;;17.88;100.00;99790.19;5050592;28;20276;-57
2023/07/31 05:17:33;;;;;;;9.23;3.40;;;;;;;17.91;100.00;99791.69;5053349;28;20178;-57
2023/07/31 05:19:58;;;;;;;7.93;3.10;;;;;;;17.82;100.00;99787.34;5052172;28;20177;-57
2023/07/31 05:22:24;;;;;;;6.83;3.20;;;;;;;17.90;100.00;99788.28;5044468;28;20225;-57
2023/07/31 05:24:49;;;;;;;7.47;3.07;;;;;;;18.04;100.00;99787.06;5046997;28;20185;-56
2023/07/31 05:27:18;;;;;;;4.27;3.30;;;;;;;17.99;100.00;99784.06;5052586;28;20610;-56
2023/07/31 05:29:43;;;;;;;5.40;2.90;;;;;;;17.95;100.00;99779.25;5050656;28;20243;-56
2023/07/31 05:32:09;;;;;;;7.47;3.30;;;;;;;18.07;100.00;99791.16;5049561;28;20620;-57
2023/07/31 05:34:34;;;;;;;6.93;3.53;;;;;;;18.10;100.00;99788.28;5042099;28;20209;-56
2023/07/31 05:36:59;;;;;;;5.30;2.87;;;;;;;18.12;100.00;99791.59;5052341;28;20178;-56
2023/07/31 05:39:24;;;;;;;10.50;3.37;;;;;;;18.13;100.00;99788.00;5051890;28;20173;-56
2023/07/31 05:41:50;;;;;;;5.37;3.20;;;;;;;18.31;100.00;99787.28;5053821;28;20614;-56
2023/07/31 05:44:15;;;;;;;9.03;2.90;;;;;;;18.42;100.00;99794.94;5039530;28;20216;-57
2023/07/31 05:46:40;;;;;;;4.70;3.30;;;;;;;18.45;100.00;99788.63;5052209;28;20266;-57
2023/07/31 05:49:05;;;;;;;12.43;3.83;;;;;;;18.51;100.00;99786.25;5052114;28;20173;-57
2023/07/31 05:51:31;;;;;;;4.90;2.80;;;;;;;18.52;100.00;99781.88;5051348;28;20278;-57
2023/07/31 05:53:56;;;;;;;6.90;2.90;;;;;;;18.66;100.00;99776.19;5043031;28;20194;-57
2023/07/31 05:56:21;;;;;;;7.80;3.20;;;;;;;18.78;100.00;99771.59;5050044;28;20192;-58
2023/07/31 05:58:48;;;;;;;6.07;3.30;;;;;;;18.94;100.00;99764.97;5051722;28;20177;-58
2023/07/31 06:01:15;;;;;;;9.23;3.23;;;;;;;18.85;100.00;99751.81;5042287;28;20220;-57
2023/07/31 06:03:40;;;;;;;7.33;4.00;;;;;;;19.21;100.00;99751.06;5032935;28;20185;-57
2023/07/31 06:06:05;;;;;;;9.20;3.23;;;;;;;19.53;100.00;99757.53;5039275;28;20308;-57
2023/07/31 06:08:31;;;;;;;8.17;3.00;;;;;;;19.52;100.00;99761.94;5047814;28;20185;-57
2023/07/31 06:10:56;;;;;;;4.57;2.73;;;;;;;19.75;100.00;99769.31;5048481;28;20584;-57
2023/07/31 06:13:21;;;;;;;5.33;2.77;;;;;;;19.91;100.00;99763.41;5050698;28;20182;-60
2023/07/31 06:15:47;;;;;;;5.97;3.00;;;;;;;20.08;100.00;99763.50;5040818;28;20229;-58
2023/07/31 06:18:12;;;;;;;7.40;3.20;;;;;;;19.83;100.00;99764.19;5038011;28;20186;-57
2023/07/31 06:20:40;;;;;;;5.17;3.03;;;;;;;19.98;100.00;99767.06;5027268;28;20228;-57
2023/07/31 06:23:05;;;;;;;7.63;3.00;;;;;;;19.99;100.00;99763.47;5052115;28;20196;-57
2023/07/31 06:25:31;;;;;;;4.50;2.60;;;;;;;20.24;100.00;99765.41;5047605;28;20185;-57
2023/07/31 06:27:56;;;;;;;6.63;2.80;;;;;;;19.80;100.00;99774.06;5053104;28;20201;-58
2023/07/31 06:30:21;;;;;;;6.00;2.53;;;;;;;19.63;100.00;99767.91;5043651;28;20238;-56
2023/07/31 06:32:46;;;;;;;5.73;3.13;;;;;;;19.92;100.00;99765.06;5064055;28;20186;-58
2023/07/31 06:35:12;;;;;;;6.07;3.30;;;;;;;19.87;100.00;99762.09;5051187;28;20177;-58
2023/07/31 06:37:40;;;;;;;9.00;3.80;;;;;;;20.48;100.00;99773.38;5040131;28;20196;-59
2023/07/31 06:40:07;;;;;;;7.10;3.07;;;;;;;21.04;100.00;99775.56;5041578;28;20204;-57
2023/07/31 06:42:32;;;;;;;7.20;3.03;;;;;;;21.36;100.00;99773.16;5048294;28;20286;-57
2023/07/31 06:44:58;;;;;;;7.70;2.70;;;;;;;22.00;100.00;99765.47;5049745;28;20542;-57
2023/07/31 06:47:23;;;;;;;5.43;2.70;;;;;;;22.51;94.58;99772.25;5047286;28;20696;-57
2023/07/31 06:49:48;;;;;;;6.97;3.23;;;;;;;22.58;93.18;99772.41;5042556;28;20185;-58
2023/07/31 06:52:13;;;;;;;9.10;3.03;;;;;;;22.63;94.18;99770.09;5044743;28;20229;-57
2023/07/31 06:54:39;;;;;;;4.53;2.60;;;;;;;22.47;94.49;99769.16;5031612;28;20888;-57
2023/07/31 06:57:04;;;;;;;7.17;3.30;;;;;;;22.55;94.15;99766.50;5043104;28;20190;-57
2023/07/31 06:59:30;;;;;;;7.43;3.07;;;;;;;22.36;94.96;99764.25;5051247;28;20185;-56
2023/07/31 07:01:55;;;;;;;9.37;3.27;;;;;;;;;;5029299;28;20579;-55
2023/07/31 07:04:20;;;;;;;4.23;2.97;;;;;;;23.83;86.84;99751.25;5034872;28;20185;-56
2023/07/31 07:06:45;;;;;;;7.47;2.67;;;;;;;24.26;83.47;99750.66;5036541;28;20197;-55
2023/07/31 07:09:10;;;;;;;8.32;2.92;;;;;;;25.23;76.53;99753.19;5045966;28;20177;-55
2023/07/31 07:11:37;;;;;;;4.10;2.47;;;;;;;26.69;68.00;99738.53;5050063;28;20224;-56
2023/07/31 07:14:02;;;;;;;7.43;2.58;;;;;;;28.23;53.95;99751.84;5042083;28;20196;-64
2023/07/31 07:16:28;;;;;;;5.15;2.83;;;;;;;28.62;52.40;99755.31;5045040;28;20241;-57
2023/07/31 07:18:54;;;;;;;5.25;2.40;;;;;;;27.80;57.48;99757.59;5051826;28;20193;-56
2023/07/31 07:21:19;;;;;;;5.55;3.40;;;;;;;26.72;62.36;99757.44;5048426;28;20592;-56
2023/07/31 07:23:44;;;;;;;9.63;2.85;;;;;;;26.32;65.79;99744.09;5058070;28;20174;-55
2023/07/31 07:26:09;;;;;;;7.25;3.22;;;;;;;26.60;63.48;99745.81;5054198;28;20177;-55
2023/07/31 07:28:37;;;;;;;4.78;2.90;;;;;;;26.57;64.17;99739.13;5054538;28;20299;-57
2023/07/31 07:31:02;;;;;;;10.02;2.90;;;;;;;25.48;71.20;99731.75;5027407;27;20221;-58
2023/07/31 07:33:27;;;;;;;5.05;2.72;;;;;;;24.57;79.21;99739.13;5052624;28;20196;-56
2023/07/31 07:35:52;;;;;;;5.13;2.92;;;;;;;24.42;80.15;99743.59;5053925;28;20814;-55
2023/07/31 07:38:19;;;;;;;7.55;3.30;;;;;;;24.26;81.25;99734.91;5054653;28;20220;-54
2023/07/31 07:40:44;;;;;;;8.75;3.50;;;;;;;23.93;83.92;99730.00;5047769;28;20703;-54
2023/07/31 07:43:10;;;;;;;3.83;2.50;;;;;;;23.53;88.07;99717.06;5043433;28;20186;-55
2023/07/31 07:45:35;;;;;;;6.57;3.13;;;;;;;24.22;87.23;99727.56;5053611;28;20270;-55
2023/07/31 07:48:00;;;;;;;6.68;2.83;;;;;;;24.14;83.58;99724.03;5053394;28;20204;-55
2023/07/31 07:50:25;;;;;;;8.10;2.70;;;;;;;24.02;85.51;99723.66;5045831;28;20221;-55
2023/07/31 07:52:51;;;;;;;7.50;3.60;;;;;;;23.59;88.66;99727.84;5054369;28;20189;-55
2023/07/31 07:55:16;;;;;;;6.13;3.25;;;;;;;22.87;92.72;99727.19;5046974;28;20221;-55
2023/07/31 07:57:41;;;;;;;4.37;2.73;;;;;;;22.43;95.21;99725.94;5046171;28;20186;-56
2023/07/31 08:00:07;;;;;;;4.73;2.93;;;;;;;22.49;95.95;99721.78;5035295;28;20205;-58
2023/07/31 08:02:32;;;;;;;12.40;2.73;;;;;;;22.02;99.22;99716.38;5034853;28;20180;-55
2023/07/31 08:04:58;;;;;;;4.47;2.40;;;;;;;21.65;100.00;99714.31;5039546;28;20182;-56
2023/07/31 08:07:23;;;;;;;9.60;2.93;;;;;;;21.58;100.00;99714.97;5048024;28;20213;-56
2023/07/31 08:09:48;;;;;;;6.43;2.73;;;;;;;21.57;100.00;99715.13;5054007;28;20531;-55
2023/07/31 08:12:14;;;;;;;4.93;2.60;;;;;;;21.48;100.00;99714.28;5052415;28;20228;-55
2023/07/31 08:14:39;;;;;;;5.93;2.60;;;;;;;21.79;100.00;99703.16;5052931;28;20347;-55
2023/07/31 08:17:04;;;;;;;5.10;2.80;;;;;;;21.92;100.00;99698.22;5053930;28;20216;-55
2023/07/31 08:19:30;;;;;;;4.37;2.80;;;;;;;21.71;100.00;99695.34;5053900;28;20204;-57
2023/07/31 08:21:55;;;;;;;7.70;3.03;;;;;;;21.93;100.00;99694.63;5052639;28;20227;-56
2023/07/31 08:24:20;;;;;;;6.90;3.33;;;;;;;21.78;100.00;99701.56;5046563;28;20223;-56
2023/07/31 08:26:46;;;;;;;8.57;3.30;;;;;;;21.73;100.00;99695.97;5048229;28;20568;-56
2023/07/31 08:29:12;;;;;;;6.90;3.17;;;;;;;21.66;100.00;99697.66;5052259;28;20193;-57
2023/07/31 08:31:37;;;;;;;6.47;2.97;;;;;;;21.91;100.00;99695.78;5053215;28;20220;-60
2023/07/31 08:34:02;;;;;;;5.40;2.77;;;;;;;22.11;99.02;99684.94;5046470;28;20189;-62
2023/07/31 08:36:28;;;;;;;7.73;3.33;;;;;;;21.84;100.00;99687.75;5040869;28;20197;-59
2023/07/31 08:38:53;;;;;;;4.83;3.47;;;;;;;22.46;97.75;99678.41;5036386;28;20220;-56
2023/07/31 08:41:18;;;;;;;4.73;2.43;;;;;;;22.41;99.18;99680.72;5049043;28;20653;-56
2023/07/31 08:43:49;;;;;;;5.60;2.97;;;;;;;22.17;100.00;99687.69;5050860;28;20182;-57
2023/07/31 08:46:14;;;;;;;5.83;2.70;;;;;;;21.81;100.00;99697.78;5045495;28;20700;-56
2023/07/31 08:48:42;;;;;;;5.00;2.40;;;;;;;21.68;100.00;99690.44;5047171;28;20185;-56
2023/07/31 08:51:08;;;;;;;9.07;3.57;;;;;;;21.77;100.00;99689.44;5044289;28;20235;-56
2023/07/31 08:53:33;;;;;;;7.70;3.30;;;;;;;21.74;100.00;99685.34;5036628;28;20549;-56
2023/07/31 08:55:59;;;;;;;8.40;3.37;;;;;;;21.68;100.00;99682.56;5043409;28;20227;-56
2023/07/31 08:58:27;;;;;;;6.73;3.00;;;;;;;21.61;100.00;99682.44;5042615;28;20604;-56
2023/07/31 09:00:55;;;;;;;7.03;3.53;;;;;;;21.50;100.00;99683.56;5038281;28;20235;-56
2023/07/31 09:03:22;;;;;;;10.73;3.50;;;;;;;21.47;100.00;99686.50;5033495;28;20185;-56
2023/07/31 09:05:47;;;;;;;6.07;2.90;;;;;;;21.53;100.00;99685.84;5036453;28;20190;-56
2023/07/31 09:08:17;;;;;;;5.63;3.00;;;;;;;21.99;100.00;99681.84;5043078;28;20220;-57
2023/07/31 09:10:45;;;;;;;4.33;2.50;;;;;;;22.39;100.00;99683.53;5036697;28;20232;-56
2023/07/31 09:13:11;;;;;;;5.30;2.37;;;;;;;22.27;97.44;99678.81;5041367;28;20231;-56
2023/07/31 09:15:37;;;;;;;5.43;2.67;;;;;;;22.87;95.54;99678.19;5046389;28;20229;-56
2023/07/31 09:18:05;;;;;;;4.43;2.73;;;;;;;22.84;96.34;99683.75;5047858;28;20192;-57
2023/07/31 09:20:31;;;;;;;7.37;2.80;;;;;;;22.64;94.70;99690.47;5031875;28;20297;-56
2023/07/31 09:23:04;;;;;;;7.67;2.93;;;;;;;22.43;96.78;99676.16;5037380;28;20328;-58
2023/07/31 09:25:29;;;;;;;6.93;2.80;;;;;;;22.32;98.27;99668.63;5046133;28;20276;-56
2023/07/31 09:28:00;;;;;;;4.60;2.80;;;;;;;22.21;98.17;99675.88;5045582;28;20201;-56
2023/07/31 09:30:26;;;;;;;8.00;3.00;;;;;;;22.07;97.61;99666.13;5034558;28;20232;-57
2023/07/31 09:33:00;;;;;;;5.50;2.83;;;;;;;22.27;97.76;99663.91;5057298;28;20189;-57
2023/07/31 09:35:31;;;;;;;4.93;2.63;;;;;;;22.40;97.08;99664.19;5048015;28;20239;-57
2023/07/31 09:38:15;;;;;;;9.40;3.30;;;;;;;22.58;95.19;99663.13;5036695;28;20178;-56
2023/07/31 09:40:42;;;;;;;5.83;3.00;;;;;;;22.65;95.57;99652.75;5036200;28;20233;-56
2023/07/31 09:43:41;;;;;;;7.50;3.13;;;;;;;22.77;94.39;99638.25;5042185;28;20213;-56
2023/07/31 09:46:13;;;;;;;6.53;2.90;;;;;;;22.77;95.31;99630.38;5023626;28;20591;-56
2023/07/31 09:48:39;;;;;;;7.70;2.83;;;;;;;23.02;93.07;99628.41;5010435;28;20195;-56
2023/07/31 09:51:04;;;;;;;5.50;2.90;;;;;;;23.12;91.08;99624.72;5016137;28;20225;-55
2023/07/31 09:53:30;;;;;;;4.83;2.73;;;;;;;23.04;92.72;99629.03;5020300;28;20740;-56
2023/07/31 09:55:58;;;;;;;4.77;2.80;;;;;;;22.59;94.33;99629.84;5027268;28;20256;-60
2023/07/31 09:58:28;;;;;;;5.53;3.33;;;;;;;22.64;94.38;99625.72;5008020;28;20758;-59
2023/07/31 10:00:54;;;;;;;9.43;3.27;;;;;;;22.87;94.46;99622.28;5002066;28;20226;-56
2023/07/31 10:03:20;;;;;;;6.87;3.50;;;;;;;22.68;93.10;99613.09;5005997;28;20205;-56
2023/07/31 10:05:50;;;;;;;6.80;2.87;;;;;;;22.82;91.98;99620.22;5007787;28;20266;-56
2023/07/31 10:08:17;;;;;;;5.63;3.00;;;;;;;22.87;92.29;99627.53;5010802;28;20657;-57
2023/07/31 10:10:44;;;;;;;4.53;2.80;;;;;;;22.99;88.82;99617.47;5002487;28;20268;-56
2023/07/31 10:13:11;;;;;;;5.93;3.00;;;;;;;22.95;90.23;99605.69;5004485;28;20245;-56
2023/07/31 10:15:37;;;;;;;7.93;3.30;;;;;;;23.29;89.16;99610.47;5011880;28;20264;-56
2023/07/31 10:18:05;;;;;;;4.57;2.83;;;;;;;23.82;87.17;99612.25;5027409;28;20194;-58
2023/07/31 10:20:31;;;;;;;7.03;2.93;;;;;;;23.61;87.66;99611.16;5017113;28;20241;-57
2023/07/31 10:22:56;;;;;;;7.60;3.33;;;;;;;23.72;85.55;99611.72;5050530;28;20235;-56
2023/07/31 10:25:22;;;;;;;5.50;3.20;;;;;;;24.18;86.20;99617.56;5043266;28;20192;-57
2023/07/31 10:27:49;;;;;;;6.80;3.00;;;;;;;24.00;79.99;99630.25;5049598;28;20200;-57
2023/07/31 10:30:17;;;;;;;4.93;3.20;;;;;;;23.92;84.23;99620.69;5034920;28;20189;-57
2023/07/31 10:32:43;;;;;;;3.67;2.60;;;;;;;24.06;83.15;99621.66;5061700;28;20634;-56
2023/07/31 10:35:10;;;;;;;5.75;3.58;;;;;;;23.86;84.16;99618.75;5047301;28;20184;-56
2023/07/31 10:37:42;;;;;;;6.80;3.30;;;;;;;23.47;84.13;99607.53;5050640;28;20271;-57
2023/07/31 10:40:25;;;;;;;5.40;2.63;;;;;;;23.71;86.17;99608.25;5040437;28;20632;-58
2023/07/31 10:42:57;;;;;;;6.23;3.13;;;;;;;24.05;85.09;99609.53;5037015;28;20185;-56
2023/07/31 10:45:32;;;;;;;6.07;3.55;;;;;;;23.93;82.63;99613.63;5050601;28;20281;-57
2023/07/31 10:48:02;;;;;;;5.27;2.70;;;;;;;24.01;82.27;99603.84;5050951;28;20220;-56
2023/07/31 10:50:29;;;;;;;4.47;3.20;;;;;;;24.15;81.33;99594.28;5042180;28;20247;-58
2023/07/31 10:52:56;;;;;;;4.10;2.95;;;;;;;24.52;78.47;99581.09;5050411;28;20190;-57
2023/07/31 10:55:32;;;;;;;6.35;2.78;;;;;;;24.79;80.01;99582.19;5032814;28;20197;-56
2023/07/31 10:58:06;;;;;;;6.38;3.22;;;;;;;25.12;75.22;99584.28;5049705;28;20188;-57
2023/07/31 11:00:32;;;;;;;4.68;2.92;;;;;;;25.14;74.87;99578.81;5033511;28;20271;-60
2023/07/31 11:03:01;;;;;;;6.68;3.63;;;;;;;25.07;77.75;99577.97;5064455;28;20177;-57
2023/07/31 11:05:58;;;;;;;4.82;3.00;;;;;;;25.83;76.30;99576.41;5053341;28;20264;-57
2023/07/31 11:08:24;;;;;;;5.65;2.88;;;;;;;25.99;66.92;99567.34;5055000;28;20664;-57
2023/07/31 11:11:11;;;;;;;7.13;3.70;;;;;;;25.80;69.65;99580.25;5050850;28;20239;-57
2023/07/31 11:13:41;;;;;;;8.38;3.20;;;;;;;25.62;64.81;99571.03;5051214;28;20177;-57
2023/07/31 11:16:07;;;;;;;6.22;3.17;;;;;;;25.70;67.27;99575.34;5038969;28;20257;-64
2023/07/31 11:18:33;;;;;;;7.03;3.35;;;;;;;25.59;72.19;99563.53;5048026;28;20684;-57
2023/07/31 11:20:59;;;;;;;5.85;2.85;;;;;;;26.05;63.45;99569.19;5044721;28;20784;-56
2023/07/31 11:23:24;;;;;;;6.05;3.20;;;;;;;26.11;69.17;99568.44;5059378;28;20182;-57
2023/07/31 11:25:50;;;;;;;10.98;3.38;;;;;;;26.05;69.07;99563.91;5053852;28;20558;-57